Time;durP1;ratioP1;P1;durP2;ratioP2;P2;SDS_P1;SDS_P2;PMS_P1;PMS_P2;Temp;Humidity;BMP_temperature;BMP_pressure;BME280_temperature;BME280_humidity;BME280_pressure;Samples;Min_cycle;Max_cycle;Signal;HPM_P1;HPM_P2
2022/10/25 00:02:22;;;;;;;5.53;2.33;;;20.30;99.90;;;;;;4991550;28;20105;-76
2022/10/25 00:05:14;;;;;;;10.43;2.88;;;20.30;99.90;;;;;;4991036;28;20032;-77
2022/10/25 00:07:40;;;;;;;6.50;2.53;;;20.30;99.90;;;;;;4991273;28;20030;-77
2022/10/25 00:10:12;;;;;;;4.63;2.47;;;20.30;99.90;;;;;;4990966;28;20053;-76
2022/10/25 00:12:45;;;;;;;10.75;2.85;;;20.40;99.90;;;;;;4991124;28;20085;-77
2022/10/25 00:15:13;;;;;;;11.93;2.88;;;20.50;99.90;;;;;;4991151;28;20030;-77
2022/10/25 00:17:40;;;;;;;8.07;2.70;;;20.40;99.90;;;;;;4957838;28;20114;-76
2022/10/25 00:20:07;;;;;;;6.93;2.60;;;20.50;99.90;;;;;;4990769;28;20026;-77
2022/10/25 00:22:33;;;;;;;6.53;2.92;;;20.40;99.90;;;;;;4990774;28;20061;-77
2022/10/25 00:25:02;;;;;;;8.57;2.72;;;20.40;99.90;;;;;;4990784;28;20029;-75
2022/10/25 00:27:29;;;;;;;13.32;3.05;;;20.40;99.90;;;;;;4990822;28;20038;-76
2022/10/25 00:29:56;;;;;;;7.70;2.50;;;20.30;99.90;;;;;;4990890;28;20022;-76
2022/10/25 00:32:23;;;;;;;10.48;2.78;;;20.30;99.90;;;;;;4990622;28;20030;-75
2022/10/25 00:34:50;;;;;;;7.78;2.38;;;20.30;99.90;;;;;;4990793;28;20081;-76
2022/10/25 00:37:19;;;;;;;7.78;2.70;;;20.30;99.90;;;;;;4990690;28;20513;-77
2022/10/25 00:39:48;;;;;;;8.45;2.70;;;20.30;99.90;;;;;;4991260;28;20441;-76
2022/10/25 00:42:21;;;;;;;12.05;2.92;;;20.30;99.90;;;;;;4972971;28;20029;-77
2022/10/25 00:44:53;;;;;;;6.53;2.50;;;20.20;99.90;;;;;;4990663;28;20034;-77
2022/10/25 00:47:20;;;;;;;8.63;2.70;;;20.10;99.90;;;;;;4972964;28;20038;-77
2022/10/25 00:50:29;;;;;;;7.45;2.85;;;20.10;99.90;;;;;;4990787;28;20030;-75
2022/10/25 00:53:02;;;;;;;7.97;2.38;;;20.10;99.90;;;;;;4990702;28;20050;-77
2022/10/25 00:55:29;;;;;;;5.88;2.60;;;20.00;99.90;;;;;;4990943;28;20030;-76
2022/10/25 00:58:04;;;;;;;5.72;2.58;;;20.00;99.90;;;;;;4973452;28;20046;-75
2022/10/25 01:00:31;;;;;;;7.28;2.53;;;19.90;99.90;;;;;;4990654;28;20410;-77
2022/10/25 01:03:00;;;;;;;9.27;2.47;;;20.00;99.90;;;;;;4990733;28;20037;-76
2022/10/25 01:05:44;;;;;;;7.07;2.30;;;20.00;99.90;;;;;;4990686;28;20038;-77
2022/10/25 01:08:11;;;;;;;11.75;2.75;;;20.10;99.90;;;;;;4973547;28;20481;-77
2022/10/25 01:10:37;;;;;;;;;;;20.10;99.90;;;;;;4990748;28;20058;-77
2022/10/25 01:13:06;;;;;;;8.02;2.50;;;20.20;99.90;;;;;;4990679;28;19980;-76
2022/10/25 01:16:03;;;;;;;7.45;2.65;;;20.20;99.90;;;;;;4990515;28;20037;-77
2022/10/25 01:18:48;;;;;;;5.65;1.98;;;20.20;99.90;;;;;;4936761;29;20129;-76
2022/10/25 01:21:52;;;;;;;5.93;2.45;;;20.20;99.90;;;;;;4949638;29;20035;-76
2022/10/25 01:24:48;;;;;;;6.30;2.53;;;20.30;99.90;;;;;;4951513;28;20369;-76
2022/10/25 01:27:35;;;;;;;7.93;2.60;;;20.20;99.90;;;;;;4953368;29;20039;-76
2022/10/25 01:30:10;;;;;;;10.15;2.67;;;20.20;99.90;;;;;;4936727;29;20027;-75
2022/10/25 01:32:48;;;;;;;6.55;2.42;;;20.20;99.90;;;;;;4953323;29;20103;-76
2022/10/25 01:35:42;;;;;;;8.65;2.60;;;20.10;99.90;;;;;;4952898;29;20062;-76
2022/10/25 01:38:49;;;;;;;10.85;2.67;;;20.20;99.90;;;;;;4952987;29;20030;-76
2022/10/25 01:41:43;;;;;;;5.97;2.45;;;20.20;99.90;;;;;;4914908;29;20147;-77
2022/10/25 01:44:32;;;;;;;6.28;2.17;;;20.10;99.90;;;;;;4914666;29;20044;-76
2022/10/25 01:47:32;;;;;;;8.27;2.33;;;20.20;99.90;;;;;;4914707;29;20048;-77
2022/10/25 01:50:25;;;;;;;5.22;2.20;;;20.20;99.90;;;;;;4839788;29;20057;-75
2022/10/25 01:52:52;;;;;;;8.52;2.30;;;20.30;99.90;;;;;;4840005;29;20049;-78
2022/10/25 01:55:18;;;;;;;;;;;20.30;99.90;;;;;;4855128;29;20037;-76
2022/10/25 01:58:13;;;;;;;6.93;2.17;;;20.30;99.90;;;;;;4876544;29;20297;-74
2022/10/25 02:00:53;;;;;;;8.10;2.85;;;20.30;99.90;;;;;;4839790;29;20163;-76
2022/10/25 02:04:15;;;;;;;4.95;2.45;;;20.30;99.90;;;;;;4839921;29;20038;-78
2022/10/25 02:07:06;;;;;;;9.77;2.67;;;20.30;99.90;;;;;;4792392;29;20602;-75
2022/10/25 02:09:49;;;;;;;8.52;2.38;;;20.20;99.90;;;;;;4839343;29;20364;-75
2022/10/25 02:12:25;;;;;;;6.50;2.20;;;20.10;99.90;;;;;;4839833;29;20046;-78
2022/10/25 02:15:01;;;;;;;7.23;2.10;;;20.10;99.90;;;;;;4839561;29;20400;-76
2022/10/25 02:17:27;;;;;;;7.88;2.65;;;20.10;99.90;;;;;;4830334;29;20045;-77
2022/10/25 02:19:57;;;;;;;5.55;2.47;;;20.10;99.90;;;;;;4858037;29;20130;-75
2022/10/25 02:22:28;;;;;;;5.80;2.35;;;20.10;99.90;;;;;;4857727;29;20041;-75
2022/10/25 02:24:56;;;;;;;10.35;2.40;;;20.10;99.90;;;;;;4857695;29;20474;-75
2022/10/25 02:27:26;;;;;;;11.82;2.65;;;20.20;99.90;;;;;;4943591;29;20464;-76
2022/10/25 02:29:53;;;;;;;5.75;2.70;;;20.10;99.90;;;;;;4951945;29;20031;-75
2022/10/25 02:32:21;;;;;;;6.65;2.60;;;20.10;99.90;;;;;;4986544;28;20034;-77
2022/10/25 02:34:50;;;;;;;8.85;2.70;;;20.10;99.90;;;;;;4974461;28;20129;-75
2022/10/25 02:37:18;;;;;;;7.07;3.00;;;20.00;99.90;;;;;;4974628;28;20122;-75
2022/10/25 02:39:47;;;;;;;8.63;2.90;;;19.90;99.90;;;;;;4992270;28;20104;-75
2022/10/25 02:42:13;;;;;;;9.35;3.13;;;19.90;99.90;;;;;;4975104;28;20481;-75
2022/10/25 02:44:39;;;;;;;6.57;2.90;;;19.80;99.90;;;;;;4993293;28;20026;-75
2022/10/25 02:47:05;;;;;;;8.38;3.00;;;19.80;99.90;;;;;;4992519;28;20087;-75
2022/10/25 02:49:32;;;;;;;7.95;2.78;;;19.80;99.90;;;;;;4991983;28;20034;-75
2022/10/25 02:51:59;;;;;;;11.02;2.88;;;19.80;99.90;;;;;;4991960;28;20125;-76
2022/10/25 02:54:26;;;;;;;12.95;2.95;;;19.70;99.90;;;;;;4974245;28;20437;-76
2022/10/25 02:56:52;;;;;;;10.15;3.10;;;19.70;99.90;;;;;;4992289;28;20069;-75
2022/10/25 02:59:20;;;;;;;8.88;2.70;;;19.60;99.90;;;;;;4992414;28;20041;-75
2022/10/25 03:01:46;;;;;;;9.30;3.00;;;19.70;99.90;;;;;;4991117;28;20038;-76
2022/10/25 03:04:16;;;;;;;8.45;2.78;;;19.70;99.90;;;;;;4992500;28;20386;-77
2022/10/25 03:06:42;;;;;;;9.93;2.95;;;19.70;99.90;;;;;;4992907;28;20038;-75
2022/10/25 03:09:10;;;;;;;8.65;3.17;;;19.60;99.90;;;;;;4992942;28;20493;-76
2022/10/25 03:11:36;;;;;;;6.03;2.88;;;19.60;99.90;;;;;;4993232;28;20039;-75
2022/10/25 03:14:02;;;;;;;8.55;3.28;;;19.60;99.90;;;;;;4993079;28;20061;-76
2022/10/25 03:16:29;;;;;;;8.60;2.67;;;19.60;99.90;;;;;;4992998;28;20109;-75
2022/10/25 03:18:58;;;;;;;6.28;3.03;;;19.60;99.90;;;;;;4992564;28;20022;-77
2022/10/25 03:21:26;;;;;;;8.10;3.40;;;19.60;99.90;;;;;;4992512;28;20057;-76
2022/10/25 03:23:53;;;;;;;7.85;3.17;;;19.60;99.90;;;;;;4992882;28;20470;-73
2022/10/25 03:26:21;;;;;;;8.57;3.17;;;19.60;99.90;;;;;;4987984;28;20038;-72
2022/10/25 03:28:48;;;;;;;8.80;3.40;;;19.50;99.90;;;;;;4989408;28;20398;-73
2022/10/25 03:31:17;;;;;;;7.47;3.42;;;19.50;99.90;;;;;;4987713;28;20058;-75
2022/10/25 03:33:43;;;;;;;7.63;3.40;;;19.50;99.90;;;;;;4984734;28;20093;-77
2022/10/25 03:36:10;;;;;;;10.35;3.78;;;19.50;99.90;;;;;;4982286;28;20026;-73
2022/10/25 03:38:36;;;;;;;11.82;3.28;;;19.50;99.90;;;;;;4959483;28;20073;-73
2022/10/25 03:41:03;;;;;;;14.27;3.30;;;19.40;99.90;;;;;;4988979;28;20121;-76
2022/10/25 03:43:30;;;;;;;8.48;3.22;;;19.40;99.90;;;;;;4988663;28;20031;-77
2022/10/25 03:45:57;;;;;;;8.10;3.22;;;19.40;99.90;;;;;;4973948;28;20030;-76
2022/10/25 03:48:23;;;;;;;5.75;2.97;;;19.40;99.90;;;;;;4973845;28;20023;-76
2022/10/25 03:50:50;;;;;;;10.40;3.50;;;19.40;99.90;;;;;;4974280;28;20110;-75
2022/10/25 03:53:17;;;;;;;5.88;2.80;;;19.40;99.90;;;;;;4973857;28;20125;-76
2022/10/25 03:55:43;;;;;;;7.75;3.03;;;19.40;99.90;;;;;;4993468;28;20451;-76
2022/10/25 03:58:09;;;;;;;7.97;3.45;;;19.40;99.90;;;;;;4975539;28;20058;-75
2022/10/25 04:00:41;;;;;;;8.18;3.10;;;19.40;99.90;;;;;;4992940;28;20034;-77
2022/10/25 04:03:08;;;;;;;8.43;3.03;;;19.50;99.90;;;;;;4993400;28;20086;-77
2022/10/25 04:05:34;;;;;;;12.15;3.15;;;19.50;99.90;;;;;;4991929;28;20085;-76
2022/10/25 04:08:01;;;;;;;12.07;3.47;;;19.50;99.90;;;;;;4993489;28;20462;-77
2022/10/25 04:10:28;;;;;;;11.40;3.50;;;19.50;99.90;;;;;;4992805;28;20055;-76
2022/10/25 04:12:54;;;;;;;8.75;3.08;;;19.50;99.90;;;;;;5008771;28;20034;-76
2022/10/25 04:15:33;;;;;;;11.48;3.20;;;19.50;99.90;;;;;;4993002;28;20033;-75
2022/10/25 04:18:03;;;;;;;11.98;3.35;;;19.50;99.90;;;;;;4993532;28;20109;-75
2022/10/25 04:20:30;;;;;;;8.85;3.30;;;19.50;99.90;;;;;;4976191;28;20034;-76
2022/10/25 04:22:57;;;;;;;6.90;3.05;;;19.40;99.90;;;;;;5008585;28;20382;-76
2022/10/25 04:25:24;;;;;;;;;;;19.40;99.90;;;;;;4993929;28;20031;-77
2022/10/25 04:27:52;;;;;;;10.35;2.92;;;19.30;99.90;;;;;;4993508;28;19910;-76
2022/10/25 04:30:24;;;;;;;10.88;3.20;;;19.30;99.90;;;;;;4993857;28;20030;-76
2022/10/25 04:32:52;;;;;;;9.13;3.38;;;19.30;99.90;;;;;;4993453;28;20037;-74
2022/10/25 04:35:21;;;;;;;7.43;3.20;;;19.30;99.90;;;;;;5009274;28;20042;-77
2022/10/25 04:37:49;;;;;;;10.35;3.10;;;19.30;99.90;;;;;;4993705;28;20085;-76
2022/10/25 04:40:15;;;;;;;11.60;2.92;;;19.30;99.90;;;;;;4976005;28;20089;-76
2022/10/25 04:42:42;;;;;;;9.10;3.03;;;19.30;99.90;;;;;;4993942;28;20033;-75
2022/10/25 04:45:08;;;;;;;;;;;19.30;99.90;;;;;;4994199;28;20026;-76
2022/10/25 04:47:34;;;;;;;8.38;3.30;;;19.30;99.90;;;;;;4993640;28;19909;-76
2022/10/25 04:50:00;;;;;;;8.80;3.17;;;19.20;99.90;;;;;;4991972;28;20034;-75
2022/10/25 04:52:30;;;;;;;5.57;3.28;;;19.20;99.90;;;;;;4993163;28;20130;-76
2022/10/25 04:54:57;;;;;;;9.40;3.63;;;19.10;99.90;;;;;;4992031;28;20375;-76
2022/10/25 04:57:25;;;;;;;9.82;4.15;;;19.10;99.90;;;;;;5007589;28;20034;-75
2022/10/25 04:59:55;;;;;;;11.27;3.88;;;19.00;99.90;;;;;;4995885;28;20027;-76
2022/10/25 05:02:21;;;;;;;14.63;3.47;;;19.00;99.90;;;;;;4981243;28;20479;-76
2022/10/25 05:04:48;;;;;;;9.45;3.00;;;18.90;99.90;;;;;;5009119;28;20037;-76
2022/10/25 05:07:17;;;;;;;13.10;3.80;;;18.90;99.90;;;;;;4996382;28;20030;-76
2022/10/25 05:09:43;;;;;;;12.13;3.83;;;19.00;99.90;;;;;;4996260;28;20043;-76
2022/10/25 05:12:09;;;;;;;6.20;2.78;;;19.00;99.90;;;;;;4978823;28;20398;-76
2022/10/25 05:14:38;;;;;;;11.13;3.35;;;19.00;99.90;;;;;;4996729;28;20026;-79
2022/10/25 05:17:05;;;;;;;15.80;3.58;;;19.10;99.90;;;;;;4996467;28;20029;-78
2022/10/25 05:19:32;;;;;;;8.20;3.50;;;19.10;99.90;;;;;;4996361;28;20380;-79
2022/10/25 05:21:59;;;;;;;12.18;3.90;;;19.10;99.90;;;;;;4996480;28;20260;-80
2022/10/25 05:24:26;;;;;;;9.38;3.50;;;19.10;99.90;;;;;;4996785;28;20027;-78
2022/10/25 05:26:52;;;;;;;11.55;3.40;;;19.10;99.90;;;;;;4996609;28;20484;-79
2022/10/25 05:29:20;;;;;;;7.65;3.15;;;19.20;99.90;;;;;;4995670;28;20137;-79
2022/10/25 05:31:46;;;;;;;16.08;3.60;;;19.20;99.90;;;;;;4995510;28;20427;-75
2022/10/25 05:34:12;;;;;;;13.77;3.33;;;19.30;99.90;;;;;;4995439;28;20026;-75
2022/10/25 05:36:39;;;;;;;9.75;2.92;;;19.30;99.90;;;;;;4995447;28;20362;-75
2022/10/25 05:39:06;;;;;;;6.55;3.05;;;19.40;99.90;;;;;;4995668;28;20019;-75
2022/10/25 05:41:32;;;;;;;8.70;2.95;;;19.40;99.90;;;;;;4995019;28;20490;-75
2022/10/25 05:44:00;;;;;;;12.73;3.00;;;19.50;99.90;;;;;;4995602;28;20157;-72
2022/10/25 05:46:26;;;;;;;10.05;3.25;;;19.60;99.90;;;;;;4993528;28;20050;-75
2022/10/25 05:48:52;;;;;;;10.40;3.00;;;19.60;99.90;;;;;;4995187;28;20030;-76
2022/10/25 05:51:21;;;;;;;9.38;3.28;;;19.60;99.90;;;;;;4994721;28;20027;-79
2022/10/25 05:53:49;;;;;;;7.82;3.00;;;19.80;99.90;;;;;;4976941;28;20335;-76
2022/10/25 05:56:16;;;;;;;9.70;3.33;;;20.20;99.90;;;;;;4994157;28;20085;-77
2022/10/25 05:58:42;;;;;;;9.05;2.70;;;20.60;99.90;;;;;;4994416;28;20042;-77
2022/10/25 06:01:10;;;;;;;5.90;2.72;;;21.20;99.90;;;;;;4976671;28;20102;-77
2022/10/25 06:03:36;;;;;;;8.35;3.28;;;21.70;99.90;;;;;;4994561;28;20109;-76
2022/10/25 06:06:04;;;;;;;9.05;3.63;;;22.00;99.90;;;;;;4994542;28;20104;-70
2022/10/25 06:08:31;;;;;;;8.05;3.10;;;22.20;99.90;;;;;;4994359;28;20072;-79
2022/10/25 06:11:06;;;;;;;10.23;3.40;;;22.70;99.90;;;;;;4994261;28;20216;-73
2022/10/25 06:13:32;;;;;;;9.40;3.30;;;23.10;99.90;;;;;;4993779;28;20030;-75
2022/10/25 06:16:03;;;;;;;17.40;3.38;;;23.50;99.90;;;;;;5009037;28;20033;-74
2022/10/25 06:18:29;;;;;;;9.98;3.22;;;23.80;99.90;;;;;;4994443;28;20030;-76
2022/10/25 06:20:55;;;;;;;10.00;3.13;;;24.10;99.90;;;;;;4994381;28;20018;-73
2022/10/25 06:23:21;;;;;;;10.77;3.03;;;24.50;99.90;;;;;;4994833;28;20443;-73
2022/10/25 06:25:47;;;;;;;8.20;3.20;;;24.70;99.90;;;;;;4994587;28;20093;-74
2022/10/25 06:28:14;;;;;;;14.13;3.30;;;25.20;99.90;;;;;;4994752;28;20450;-73
2022/10/25 06:30:42;;;;;;;9.48;3.20;;;25.80;99.90;;;;;;4976795;28;20038;-71
2022/10/25 06:33:08;;;;;;;10.77;3.40;;;25.70;99.90;;;;;;4977146;28;20081;-73
2022/10/25 06:35:34;;;;;;;10.82;3.47;;;25.70;99.90;;;;;;4994426;28;20026;-73
2022/10/25 06:38:00;;;;;;;11.02;3.38;;;25.80;99.90;;;;;;4976779;28;20114;-74
2022/10/25 06:40:27;;;;;;;12.75;3.42;;;25.80;99.90;;;;;;4994294;28;20053;-74
2022/10/25 06:42:55;;;;;;;12.18;3.05;;;25.70;99.90;;;;;;4994510;28;20080;-73
2022/10/25 06:45:23;;;;;;;10.45;3.42;;;26.10;99.90;;;;;;4994041;28;20019;-73
2022/10/25 06:47:50;;;;;;;8.93;2.90;;;26.60;99.90;;;;;;4994362;28;20053;-73
2022/10/25 06:50:16;;;;;;;11.35;3.00;;;26.60;99.90;;;;;;4994031;28;20018;-73
2022/10/25 06:52:42;;;;;;;;;;;26.40;99.90;;;;;;4976765;28;20085;-73
2022/10/25 06:55:08;;;;;;;;;;;26.40;99.90;;;;;;4960550;28;19926;-72
2022/10/25 06:57:34;;;;;;;;;;;26.40;99.90;;;;;;4994608;28;19905;-74
2022/10/25 07:00:00;;;;;;;10.43;3.20;;;26.90;99.90;;;;;;4993641;28;20324;-73
2022/10/25 07:02:30;;;;;;;12.68;3.97;;;27.50;99.90;;;;;;4993654;28;20027;-73
2022/10/25 07:04:56;;;;;;;12.55;2.97;;;27.80;99.90;;;;;;4993997;28;20030;-73
2022/10/25 07:07:22;;;;;;;9.43;3.15;;;28.30;99.90;;;;;;4975922;28;20038;-73
2022/10/25 07:09:51;;;;;;;9.98;2.90;;;28.40;99.90;;;;;;4993589;28;20093;-73
2022/10/25 07:12:17;;;;;;;12.10;2.95;;;29.20;99.90;;;;;;4993314;28;20030;-74
2022/10/25 07:14:44;;;;;;;10.85;3.08;;;29.40;99.90;;;;;;4993722;28;20034;-73
2022/10/25 07:17:11;;;;;;;12.05;3.72;;;29.10;99.90;;;;;;4993003;28;20124;-75
2022/10/25 07:19:37;;;;;;;11.45;3.15;;;28.10;99.90;;;;;;4993458;28;20482;-74
2022/10/25 07:22:03;;;;;;;12.25;3.20;;;28.30;99.90;;;;;;4992864;28;20031;-74
2022/10/25 07:24:30;;;;;;;13.88;3.30;;;27.90;99.90;;;;;;4993532;28;20378;-74
2022/10/25 07:26:58;;;;;;;12.60;3.13;;;27.60;99.90;;;;;;4993453;28;20497;-74
2022/10/25 07:29:26;;;;;;;13.10;3.63;;;27.10;99.90;;;;;;4993390;28;20505;-73
2022/10/25 07:31:52;;;;;;;12.80;3.38;;;26.40;99.90;;;;;;4975734;28;20121;-75
2022/10/25 07:34:19;;;;;;;13.45;3.00;;;26.20;99.90;;;;;;4993230;28;20069;-74
2022/10/25 07:36:46;;;;;;;12.60;3.35;;;26.00;99.90;;;;;;4975872;28;20030;-74
2022/10/25 07:39:12;;;;;;;9.63;3.60;;;25.90;99.90;;;;;;4993055;28;20030;-73
2022/10/25 07:41:38;;;;;;;13.15;3.20;;;25.90;99.90;;;;;;4991983;28;20038;-75
2022/10/25 07:44:05;;;;;;;15.50;3.20;;;25.70;99.90;;;;;;4964294;28;20455;-71
2022/10/25 07:46:32;;;;;;;11.98;3.42;;;25.50;99.90;;;;;;4992911;28;20099;-74
2022/10/25 07:48:59;;;;;;;13.88;3.95;;;25.60;99.90;;;;;;4992718;28;20369;-75
2022/10/25 07:51:26;;;;;;;10.85;3.15;;;25.50;99.90;;;;;;4974846;28;20141;-74
2022/10/25 07:53:53;;;;;;;11.80;3.33;;;25.30;99.90;;;;;;4991717;28;20049;-75
2022/10/25 07:56:19;;;;;;;9.60;3.40;;;25.00;99.90;;;;;;4991447;28;20038;-73
2022/10/25 07:58:46;;;;;;;11.98;3.65;;;25.00;99.90;;;;;;4991535;28;20081;-73
2022/10/25 08:01:19;;;;;;;12.40;3.78;;;25.00;99.90;;;;;;4989164;28;20066;-74
2022/10/25 08:03:46;;;;;;;16.10;4.00;;;25.30;99.90;;;;;;4974311;28;20411;-74
2022/10/25 08:06:12;;;;;;;14.13;3.33;;;25.70;99.90;;;;;;4991489;28;20086;-74
2022/10/25 08:08:38;;;;;;;14.88;4.07;;;26.10;99.90;;;;;;4991481;28;20097;-74
2022/10/25 08:11:07;;;;;;;11.82;3.70;;;26.50;99.90;;;;;;4957807;28;20490;-74
2022/10/25 08:13:37;;;;;;;12.32;3.05;;;26.90;99.90;;;;;;4991830;28;20109;-75
2022/10/25 08:16:06;;;;;;;14.40;3.50;;;27.20;99.90;;;;;;4966099;28;20026;-75
2022/10/25 08:18:33;;;;;;;10.23;3.50;;;27.40;99.90;;;;;;4992782;28;20019;-75
2022/10/25 08:21:02;;;;;;;17.02;3.00;;;27.50;99.90;;;;;;4992691;28;20404;-75
2022/10/25 08:23:30;;;;;;;7.65;3.00;;;27.10;99.90;;;;;;4992970;28;20030;-74
2022/10/25 08:25:56;;;;;;;12.13;3.10;;;26.80;99.90;;;;;;4992452;28;20069;-76
2022/10/25 08:28:22;;;;;;;10.18;2.95;;;26.70;99.90;;;;;;4992514;28;20099;-74
2022/10/25 08:30:48;;;;;;;11.48;3.55;;;26.80;99.90;;;;;;4992453;28;20056;-75
2022/10/25 08:33:16;;;;;;;9.65;3.83;;;27.00;99.90;;;;;;4975515;28;20026;-75
2022/10/25 08:35:42;;;;;;;9.88;4.35;;;27.10;99.90;;;;;;4996396;28;20054;-74
2022/10/25 08:38:08;;;;;;;10.50;3.83;;;27.10;99.90;;;;;;4996504;28;20340;-73
2022/10/25 08:41:02;;;;;;;11.27;4.13;;;27.20;99.90;;;;;;4978906;28;20378;-74
2022/10/25 08:43:48;;;;;;;9.80;3.70;;;27.30;99.90;;;;;;4978731;28;20078;-73
2022/10/25 08:46:22;;;;;;;;;;;27.20;99.90;;;;;;4956029;29;20507;-74
2022/10/25 08:48:56;;;;;;;8.15;3.05;;;27.30;99.90;;;;;;4955047;29;19950;-73
2022/10/25 08:51:32;;;;;;;12.45;3.97;;;27.20;99.90;;;;;;4955653;29;20035;-73
2022/10/25 08:54:04;;;;;;;20.65;4.43;;;27.30;99.90;;;;;;4939940;29;20039;-74
2022/10/25 08:56:32;;;;;;;13.15;4.50;;;27.40;99.90;;;;;;4955058;29;20039;-73
2022/10/25 08:59:02;;;;;;;8.70;3.38;;;27.30;99.90;;;;;;4955179;29;20067;-74
2022/10/25 09:01:42;;;;;;;18.10;4.18;;;27.40;99.90;;;;;;4954922;29;20031;-74
2022/10/25 09:04:09;;;;;;;9.98;3.60;;;27.10;99.90;;;;;;4955396;29;20027;-72
2022/10/25 09:06:58;;;;;;;8.32;3.35;;;27.10;99.90;;;;;;4954656;29;20057;-73
2022/10/25 09:09:40;;;;;;;18.67;3.90;;;27.30;99.90;;;;;;4954717;29;20122;-73
2022/10/25 09:12:33;;;;;;;12.95;3.58;;;27.30;99.90;;;;;;4954992;29;20081;-69
2022/10/25 09:15:35;;;;;;;16.95;3.75;;;27.30;99.90;;;;;;4955508;29;20033;-74
2022/10/25 09:18:09;;;;;;;9.65;3.20;;;27.40;99.90;;;;;;4989199;28;20117;-73
2022/10/25 09:20:46;;;;;;;10.88;3.45;;;27.40;99.90;;;;;;4995804;28;20033;-72
2022/10/25 09:23:12;;;;;;;14.70;3.00;;;27.50;99.90;;;;;;4995657;28;20336;-73
2022/10/25 09:26:19;;;;;;;22.83;5.30;;;27.50;99.90;;;;;;4995690;28;20033;-73
2022/10/25 09:29:11;;;;;;;11.10;3.10;;;27.40;99.90;;;;;;4995976;28;20023;-73
2022/10/25 09:31:43;;;;;;;15.52;3.67;;;27.40;99.90;;;;;;4995710;28;20030;-75
2022/10/25 09:34:10;;;;;;;12.98;3.30;;;27.20;99.90;;;;;;4995906;28;20089;-74
2022/10/25 09:36:53;;;;;;;9.57;3.22;;;27.10;99.90;;;;;;4995629;28;20077;-73
2022/10/25 09:39:35;;;;;;;9.80;3.05;;;27.00;99.90;;;;;;4995305;28;20034;-74
2022/10/25 09:42:06;;;;;;;8.57;3.28;;;27.00;99.90;;;;;;4995054;28;20053;-74
2022/10/25 09:44:52;;;;;;;11.35;3.28;;;27.10;99.90;;;;;;4976814;28;20441;-73
2022/10/25 09:47:38;;;;;;;15.13;3.67;;;27.30;99.90;;;;;;4995229;28;20091;-74
2022/10/25 09:50:29;;;;;;;12.88;3.30;;;27.00;99.90;;;;;;4995744;28;20137;-73
2022/10/25 09:53:04;;;;;;;11.57;3.17;;;27.00;99.90;;;;;;4957861;28;20113;-75
2022/10/25 09:55:46;;;;;;;11.18;3.60;;;27.10;99.90;;;;;;4995258;28;20390;-74
2022/10/25 09:58:23;;;;;;;10.00;3.42;;;27.00;99.90;;;;;;4994887;28;20426;-73
2022/10/25 10:00:51;;;;;;;12.00;3.35;;;27.10;99.90;;;;;;4994728;28;20053;-76
2022/10/25 10:03:19;;;;;;;17.08;4.43;;;27.20;99.90;;;;;;4976766;28;20046;-73
2022/10/25 10:05:55;;;;;;;13.80;3.90;;;27.20;99.90;;;;;;4976762;28;20026;-73
2022/10/25 10:08:23;;;;;;;;;;;27.30;99.90;;;;;;4994842;28;20054;-73
2022/10/25 10:10:53;;;;;;;17.15;3.53;;;27.20;99.90;;;;;;4994076;28;19917;-75
2022/10/25 10:13:41;;;;;;;15.35;3.50;;;27.20;99.90;;;;;;4994631;28;20037;-76
2022/10/25 10:16:24;;;;;;;12.85;3.88;;;27.20;99.90;;;;;;4994682;28;20054;-75
2022/10/25 10:18:50;;;;;;;14.35;3.38;;;27.30;99.90;;;;;;4994344;28;20022;-76
2022/10/25 10:21:36;;;;;;;;;;;27.30;99.90;;;;;;4994564;28;20030;-76
2022/10/25 10:24:16;;;;;;;11.25;3.40;;;27.30;99.90;;;;;;4994414;28;20364;-76
2022/10/25 10:26:47;;;;;;;9.60;3.70;;;27.20;99.90;;;;;;4994027;28;20132;-75
2022/10/25 10:29:51;;;;;;;14.77;4.10;;;27.20;99.90;;;;;;4994413;28;20149;-74
2022/10/25 10:32:32;;;;;;;14.57;4.63;;;27.10;99.90;;;;;;4994720;28;20109;-76
2022/10/25 10:34:58;;;;;;;12.73;3.95;;;27.20;99.90;;;;;;4994864;28;20085;-74
2022/10/25 10:37:44;;;;;;;10.90;4.07;;;27.30;99.90;;;;;;4979317;28;20142;-75
2022/10/25 10:40:18;;;;;;;12.18;3.92;;;27.30;99.90;;;;;;4976687;28;20145;-76
2022/10/25 10:42:45;;;;;;;14.18;4.30;;;27.40;99.90;;;;;;4993784;28;20031;-77
2022/10/25 10:45:19;;;;;;;16.88;4.32;;;27.20;99.90;;;;;;4994005;28;20101;-76
2022/10/25 10:47:56;;;;;;;13.48;3.90;;;27.30;99.90;;;;;;4994145;28;20038;-77
2022/10/25 10:50:50;;;;;;;12.38;3.90;;;27.20;99.90;;;;;;4993540;28;20022;-76
2022/10/25 10:53:28;;;;;;;10.05;3.60;;;27.30;99.90;;;;;;4975964;28;20034;-76
2022/10/25 10:55:59;;;;;;;11.95;3.55;;;27.40;99.90;;;;;;4992666;28;20030;-76
2022/10/25 10:58:50;;;;;;;8.63;3.38;;;27.40;99.90;;;;;;4993667;28;20029;-76
2022/10/25 11:01:32;;;;;;;9.75;3.67;;;27.50;99.90;;;;;;4992756;28;20089;-77
2022/10/25 11:04:00;;;;;;;15.23;4.40;;;27.70;99.90;;;;;;4974528;28;20029;-75
2022/10/25 11:06:29;;;;;;;11.38;3.78;;;27.60;99.90;;;;;;4992836;28;20069;-76
2022/10/25 11:09:22;;;;;;;13.95;3.83;;;27.40;99.90;;;;;;4992953;28;20110;-73
2022/10/25 11:12:13;;;;;;;9.48;3.40;;;27.50;99.90;;;;;;4992697;28;20120;-76
2022/10/25 11:14:50;;;;;;;10.38;3.47;;;27.50;99.90;;;;;;4990628;28;20041;-76
2022/10/25 11:17:31;;;;;;;11.70;4.03;;;27.60;99.90;;;;;;4992411;28;20026;-76
2022/10/25 11:20:06;;;;;;;12.93;3.65;;;27.60;99.90;;;;;;4975491;28;20398;-75
2022/10/25 11:23:00;;;;;;;14.48;3.80;;;27.60;99.90;;;;;;4993060;28;20034;-75
2022/10/25 11:25:32;;;;;;;9.63;3.15;;;27.80;99.90;;;;;;4993717;28;20031;-74
2022/10/25 11:28:20;;;;;;;15.15;3.55;;;27.70;99.90;;;;;;4975591;28;20231;-76
2022/10/25 11:31:00;;;;;;;10.57;3.50;;;27.80;99.90;;;;;;4992330;28;20054;-76
2022/10/25 11:33:50;;;;;;;10.60;3.65;;;27.80;99.90;;;;;;4993364;28;20470;-76
2022/10/25 11:36:30;;;;;;;12.77;3.50;;;28.00;99.90;;;;;;4993070;28;20084;-75
2022/10/25 11:39:34;;;;;;;8.75;3.25;;;28.10;99.90;;;;;;4992066;28;20128;-75
2022/10/25 11:42:44;;;;;;;10.63;3.60;;;27.90;99.90;;;;;;4973775;28;20490;-75
2022/10/25 11:45:34;;;;;;;9.40;3.20;;;27.90;99.90;;;;;;4912721;29;20035;-78
2022/10/25 11:48:42;;;;;;;10.98;3.50;;;28.00;99.90;;;;;;4913094;29;20048;-77
2022/10/25 11:51:33;;;;;;;12.13;3.55;;;28.20;99.90;;;;;;4912062;29;20654;-77
2022/10/25 11:54:12;;;;;;;10.25;3.50;;;28.00;99.90;;;;;;4912580;29;20037;-77
2022/10/25 11:57:00;;;;;;;10.05;3.42;;;28.10;99.90;;;;;;4914194;29;20035;-78
2022/10/25 12:00:11;;;;;;;10.00;3.60;;;28.10;99.90;;;;;;4914257;29;20096;-77
2022/10/25 12:03:14;;;;;;;11.00;3.50;;;28.20;99.90;;;;;;4914414;29;20028;-76
2022/10/25 12:05:42;;;;;;;9.57;3.50;;;28.10;99.90;;;;;;4912917;29;20537;-77
2022/10/25 12:08:35;;;;;;;12.60;3.50;;;28.20;99.90;;;;;;4913485;29;20504;-78
2022/10/25 12:11:12;;;;;;;12.35;3.58;;;28.00;99.90;;;;;;4913938;29;20460;-76
2022/10/25 12:13:50;;;;;;;12.82;3.97;;;28.10;99.90;;;;;;4913966;29;20055;-76
2022/10/25 12:16:20;;;;;;;12.82;3.50;;;28.10;99.90;;;;;;4929729;29;20034;-76
2022/10/25 12:18:52;;;;;;;9.00;3.45;;;27.90;99.90;;;;;;4934421;28;20570;-77
2022/10/25 12:21:26;;;;;;;15.23;4.15;;;27.80;99.90;;;;;;4957805;28;20144;-77
2022/10/25 12:23:53;;;;;;;13.25;3.70;;;28.00;99.90;;;;;;4956269;28;20031;-78
2022/10/25 12:26:19;;;;;;;9.02;3.85;;;28.10;99.90;;;;;;4974113;28;20153;-79
2022/10/25 12:28:48;;;;;;;8.98;3.92;;;28.00;99.90;;;;;;4973998;28;20023;-79
2022/10/25 12:31:24;;;;;;;14.23;3.85;;;28.10;99.90;;;;;;4956721;28;20039;-79
2022/10/25 12:34:13;;;;;;;;;;;28.10;99.90;;;;;;4974642;28;20103;-76
2022/10/25 12:36:47;;;;;;;11.95;3.20;;;28.10;99.90;;;;;;4974041;28;20000;-76
2022/10/25 12:39:25;;;;;;;16.60;3.70;;;28.10;99.90;;;;;;4973923;28;20103;-77
2022/10/25 12:42:04;;;;;;;11.75;3.88;;;28.10;99.90;;;;;;4973990;28;20085;-76
2022/10/25 12:45:04;;;;;;;11.35;3.90;;;28.10;99.90;;;;;;4991321;28;20119;-77
2022/10/25 12:47:55;;;;;;;7.60;3.50;;;28.00;99.90;;;;;;4993209;28;20042;-76
2022/10/25 12:50:49;;;;;;;10.70;3.53;;;28.00;99.90;;;;;;4975486;28;20134;-78
2022/10/25 12:53:58;;;;;;;9.90;3.45;;;27.60;99.90;;;;;;4993293;28;20486;-77
2022/10/25 12:56:57;;;;;;;9.10;3.40;;;27.60;99.90;;;;;;4975118;28;20022;-77
2022/10/25 12:59:51;;;;;;;17.40;3.95;;;27.60;99.90;;;;;;4975281;28;20122;-77
2022/10/25 13:02:35;;;;;;;14.93;4.15;;;27.60;99.90;;;;;;4993061;28;20033;-78
2022/10/25 13:05:43;;;;;;;12.90;4.07;;;27.70;99.90;;;;;;4975062;28;20031;-76
2022/10/25 13:08:10;;;;;;;9.80;3.45;;;27.70;99.90;;;;;;4975034;28;20039;-77
2022/10/25 13:10:42;;;;;;;11.13;3.60;;;27.80;99.90;;;;;;4975007;28;20062;-78
2022/10/25 13:13:48;;;;;;;10.65;3.33;;;28.00;99.90;;;;;;4992544;28;20054;-77
2022/10/25 13:16:28;;;;;;;9.27;3.45;;;28.10;99.90;;;;;;4992301;28;20368;-77
2022/10/25 13:19:21;;;;;;;9.43;3.20;;;28.10;99.90;;;;;;4975754;28;20038;-76
2022/10/25 13:21:53;;;;;;;8.25;3.10;;;27.90;99.90;;;;;;4968103;28;20030;-76